Time;durP1;ratioP1;P1;durP2;ratioP2;P2;SDS_P1;SDS_P2;PMS_P1;PMS_P2;Temp;Humidity;BMP_temperature;BMP_pressure;BME280_temperature;BME280_humidity;BME280_pressure;Samples;Min_cycle;Max_cycle;Signal;HPM_P1;HPM_P2
2023/09/20 00:02:08;;;;;;;56.37;2.40;;;;;;;;;;5133921;27;20445;-72
2023/09/20 00:04:35;;;;;;;58.50;3.50;;;;;;;;;;5133563;27;20437;-70
2023/09/20 00:07:02;;;;;;;56.90;2.60;;;;;;;;;;5133473;27;20518;-71
2023/09/20 00:09:30;;;;;;;56.77;2.70;;;;;;;;;;5133637;27;20445;-71
2023/09/20 00:11:58;;;;;;;56.90;2.57;;;;;;;;;;5125228;27;21029;-71
2023/09/20 00:14:26;;;;;;;56.90;2.60;;;;;;;;;;5133513;27;20661;-72
2023/09/20 00:16:53;;;;;;;56.87;2.80;;;;;;;;;;5133079;27;20552;-72
2023/09/20 00:19:20;;;;;;;56.70;2.80;;;;;;;;;;5133167;27;20959;-72
2023/09/20 00:21:47;;;;;;;56.47;2.43;;;;;;;;;;5133510;27;20448;-72
2023/09/20 00:24:14;;;;;;;56.53;2.27;;;;;;;;;;5133445;27;20441;-72
2023/09/20 00:26:41;;;;;;;56.70;2.40;;;;;;;;;;5132988;27;20464;-71
2023/09/20 00:29:10;;;;;;;56.77;2.50;;;;;;;;;;5133094;27;20441;-72
2023/09/20 00:31:38;;;;;;;56.57;2.40;;;;;;;;;;5133177;27;20440;-72
2023/09/20 00:34:05;;;;;;;56.90;2.63;;;;;;;;;;5133266;27;20845;-72
2023/09/20 00:36:32;;;;;;;56.80;2.67;;;;;;;;;;5132912;27;20441;-72
2023/09/20 00:39:00;;;;;;;57.43;3.10;;;;;;;;;;5133044;27;20862;-72
2023/09/20 00:41:27;;;;;;;56.67;2.60;;;;;;;;;;5133003;27;20441;-72
2023/09/20 00:43:55;;;;;;;56.67;2.30;;;;;;;;;;5132887;27;20458;-72
2023/09/20 00:46:23;;;;;;;56.93;2.87;;;;;;;;;;5132754;27;20444;-71
2023/09/20 00:48:53;;;;;;;56.90;2.50;;;;;;;;;;5132883;27;20440;-72
2023/09/20 00:51:21;;;;;;;56.47;2.20;;;;;;;;;;5132768;27;20461;-72
2023/09/20 00:53:49;;;;;;;56.57;2.23;;;;;;;;;;5152162;27;20447;-72
2023/09/20 00:56:16;;;;;;;56.70;2.50;;;;;;;;;;5153126;27;20484;-71
2023/09/20 00:58:45;;;;;;;56.57;2.40;;;;;;;;;;5153102;27;20481;-72
2023/09/20 01:01:12;;;;;;;56.77;2.50;;;;;;;;;;5153549;27;20787;-73
2023/09/20 01:03:41;;;;;;;56.70;2.60;;;;;;;;;;5153401;27;20447;-72
2023/09/20 01:06:09;;;;;;;56.70;2.50;;;;;;;;;;5153229;27;20436;-72
2023/09/20 01:08:36;;;;;;;56.60;2.20;;;;;;;;;;5152501;27;20543;-71
2023/09/20 01:11:04;;;;;;;56.90;2.60;;;;;;;;;;5153320;27;20440;-72
2023/09/20 01:13:31;;;;;;;56.70;2.57;;;;;;;;;;5153543;27;20448;-72
2023/09/20 01:16:01;;;;;;;56.90;2.50;;;;;;;;;;5153252;27;20483;-72
2023/09/20 01:18:28;;;;;;;56.47;2.30;;;;;;;;;;5153085;27;20468;-72
2023/09/20 01:20:56;;;;;;;56.57;2.30;;;;;;;;;;5152773;27;20492;-72
2023/09/20 01:23:25;;;;;;;56.77;2.57;;;;;;;;;;5124347;27;20445;-72
2023/09/20 01:25:55;;;;;;;56.63;2.47;;;;;;;;;;5140986;27;20457;-72
2023/09/20 01:28:24;;;;;;;56.87;2.67;;;;;;;;;;5147753;27;20475;-72
2023/09/20 01:30:51;;;;;;;57.17;2.60;;;;;;;;;;5153104;27;20448;-72
2023/09/20 01:33:19;;;;;;;57.00;2.87;;;;;;;;;;5153119;27;20947;-71
2023/09/20 01:35:47;;;;;;;56.60;2.53;;;;;;;;;;5153137;27;20486;-72
2023/09/20 01:38:14;;;;;;;56.87;2.47;;;;;;;;;;5152779;27;20517;-72
2023/09/20 01:40:46;;;;;;;56.53;2.33;;;;;;;;;;5153379;27;20870;-71
2023/09/20 01:43:14;;;;;;;57.60;2.57;;;;;;;;;;5153215;27;20455;-72
2023/09/20 01:45:42;;;;;;;56.60;2.40;;;;;;;;;;5152997;27;20497;-72
2023/09/20 01:48:11;;;;;;;56.47;2.27;;;;;;;;;;5152803;27;20997;-72
2023/09/20 01:50:41;;;;;;;57.70;3.43;;;;;;;;;;5152849;27;20846;-72
2023/09/20 01:53:10;;;;;;;56.77;2.60;;;;;;;;;;5152587;27;20446;-72
2023/09/20 01:55:37;;;;;;;56.67;2.30;;;;;;;;;;5152457;27;20475;-71
2023/09/20 01:58:06;;;;;;;56.90;2.40;;;;;;;;;;5152441;27;20463;-72
2023/09/20 02:00:37;;;;;;;56.60;2.60;;;;;;;;;;5152545;27;20455;-71
2023/09/20 02:03:10;;;;;;;56.63;2.30;;;;;;;;;;5152546;27;20451;-71
2023/09/20 02:05:37;;;;;;;56.87;2.60;;;;;;;;;;5152217;27;20436;-71
2023/09/20 02:08:06;;;;;;;56.70;2.50;;;;;;;;;;5152177;27;20468;-72
2023/09/20 02:10:34;;;;;;;56.70;2.50;;;;;;;;;;5152456;27;20443;-71
2023/09/20 02:13:01;;;;;;;56.60;2.50;;;;;;;;;;5152482;27;20442;-72
2023/09/20 02:15:31;;;;;;;57.10;2.60;;;;;;;;;;5152389;27;20483;-72
2023/09/20 02:17:58;;;;;;;56.90;2.57;;;;;;;;;;5151994;27;20979;-73
2023/09/20 02:20:26;;;;;;;56.67;2.23;;;;;;;;;;5152454;27;20451;-73
2023/09/20 02:22:53;;;;;;;56.87;2.70;;;;;;;;;;5152359;27;20443;-73
2023/09/20 02:25:21;;;;;;;56.47;2.60;;;;;;;;;;5152204;27;20432;-70
2023/09/20 02:27:48;;;;;;;56.70;2.40;;;;;;;;;;5151837;27;20990;-71
2023/09/20 02:30:16;;;;;;;56.77;2.50;;;;;;;;;;5152240;27;20444;-70
2023/09/20 02:32:45;;;;;;;57.00;2.70;;;;;;;;;;5152308;27;20452;-71
2023/09/20 02:35:12;;;;;;;56.67;2.77;;;;;;;;;;5156177;27;20521;-71
2023/09/20 02:40:46;;;;;;;56.87;3.03;;;;;;;;;;5134245;27;20430;-71
2023/09/20 02:43:13;;;;;;;56.73;2.60;;;;;;;;;;5140144;27;20453;-71
2023/09/20 02:45:41;;;;;;;57.20;3.63;;;;;;;;;;5138712;27;20445;-71
2023/09/20 02:48:09;;;;;;;56.70;2.50;;;;;;;;;;5142932;27;20473;-71
2023/09/20 02:50:36;;;;;;;56.77;2.50;;;;;;;;;;5131776;27;20543;-71
2023/09/20 02:53:04;;;;;;;56.50;2.50;;;;;;;;;;5147261;27;20522;-70
2023/09/20 02:55:32;;;;;;;56.60;2.30;;;;;;;;;;5139690;27;20537;-71
2023/09/20 02:57:59;;;;;;;57.10;3.20;;;;;;;;;;5143419;27;21040;-71
2023/09/20 03:00:28;;;;;;;56.87;2.90;;;;;;;;;;5135057;27;20445;-71
2023/09/20 03:02:57;;;;;;;58.13;4.00;;;;;;;;;;5134774;27;20449;-71
2023/09/20 03:05:27;;;;;;;57.50;2.70;;;;;;;;;;5134773;27;20449;-72
2023/09/20 03:07:54;;;;;;;56.97;2.50;;;;;;;;;;5134600;27;20475;-71
2023/09/20 03:10:22;;;;;;;56.67;2.50;;;;;;;;;;5134870;27;20441;-71
2023/09/20 03:12:51;;;;;;;56.80;2.70;;;;;;;;;;5134761;27;20483;-72
2023/09/20 03:15:21;;;;;;;56.80;3.00;;;;;;;;;;5134643;27;20476;-72
2023/09/20 03:17:48;;;;;;;58.70;3.23;;;;;;;;;;5134184;27;20475;-71
2023/09/20 03:20:22;;;;;;;57.27;3.37;;;;;;;;;;5134517;27;20453;-71
2023/09/20 03:22:52;;;;;;;56.57;2.73;;;;;;;;;;5129979;27;20464;-72
2023/09/20 03:25:20;;;;;;;56.60;2.40;;;;;;;;;;5126836;27;21027;-71
2023/09/20 03:27:48;;;;;;;56.90;2.50;;;;;;;;;;5143403;27;20479;-70
2023/09/20 03:30:16;;;;;;;56.67;2.50;;;;;;;;;;5155093;27;20923;-71
2023/09/20 03:32:44;;;;;;;57.10;3.00;;;;;;;;;;5155024;27;20451;-71
2023/09/20 03:35:12;;;;;;;56.57;2.10;;;;;;;;;;5155122;27;20467;-71
2023/09/20 03:37:40;;;;;;;56.87;2.30;;;;;;;;;;5154750;27;20472;-72
2023/09/20 03:40:10;;;;;;;57.47;2.60;;;;;;;;;;5155061;27;20950;-72
2023/09/20 03:42:38;;;;;;;56.67;2.30;;;;;;;;;;5154851;27;20451;-70
2023/09/20 03:45:06;;;;;;;57.60;2.47;;;;;;;;;;5154514;27;20475;-71
2023/09/20 03:47:33;;;;;;;56.60;2.30;;;;;;;;;;5154633;27;20467;-71
2023/09/20 03:50:01;;;;;;;56.73;2.60;;;;;;;;;;5154703;27;20451;-70
2023/09/20 03:52:28;;;;;;;56.67;2.40;;;;;;;;;;5154760;27;20452;-70
2023/09/20 03:54:57;;;;;;;56.47;2.43;;;;;;;;;;5138146;27;20461;-70
2023/09/20 03:57:25;;;;;;;56.43;2.50;;;;;;;;;;5145902;27;20480;-71
2023/09/20 03:59:52;;;;;;;56.87;2.90;;;;;;;;;;5145901;27;20452;-71
2023/09/20 04:02:19;;;;;;;56.77;2.40;;;;;;;;;;5147605;27;20506;-70
2023/09/20 04:04:47;;;;;;;56.57;2.43;;;;;;;;;;5134345;27;20449;-71
2023/09/20 04:07:14;;;;;;;56.43;2.47;;;;;;;;;;5137765;27;20463;-70
2023/09/20 04:09:41;;;;;;;57.00;2.63;;;;;;;;;;5137360;27;20459;-71
2023/09/20 04:12:10;;;;;;;56.57;2.70;;;;;;;;;;5133627;27;20453;-71
2023/09/20 04:14:39;;;;;;;56.47;2.33;;;;;;;;;;5133692;27;20445;-71
2023/09/20 04:17:06;;;;;;;56.77;2.37;;;;;;;;;;5133223;27;20496;-70
2023/09/20 04:19:33;;;;;;;56.63;2.20;;;;;;;;;;5133431;27;20445;-71
2023/09/20 04:22:04;;;;;;;57.67;2.80;;;;;;;;;;5133168;27;20456;-72
2023/09/20 04:24:32;;;;;;;56.60;2.40;;;;;;;;;;5133470;27;20453;-71
2023/09/20 04:26:59;;;;;;;56.50;2.40;;;;;;;;;;5133244;27;20461;-72
2023/09/20 04:29:26;;;;;;;56.77;2.50;;;;;;;;;;5133309;27;20808;-71
2023/09/20 04:31:55;;;;;;;56.50;2.23;;;;;;;;;;5133175;27;20449;-72
2023/09/20 04:34:23;;;;;;;56.70;2.50;;;;;;;;;;5133236;27;20536;-71
2023/09/20 04:36:52;;;;;;;57.10;2.60;;;;;;;;;;5132666;27;20500;-72
2023/09/20 04:39:21;;;;;;;56.60;2.33;;;;;;;;;;5133195;27;20936;-72
2023/09/20 04:41:48;;;;;;;56.67;2.70;;;;;;;;;;5132831;27;20448;-72
2023/09/20 04:44:15;;;;;;;56.70;2.60;;;;;;;;;;5133179;27;20440;-72
2023/09/20 04:46:43;;;;;;;56.40;2.30;;;;;;;;;;5132774;27;20975;-71
2023/09/20 04:49:11;;;;;;;56.30;2.10;;;;;;;;;;5132743;27;20445;-72
2023/09/20 04:51:39;;;;;;;56.80;2.70;;;;;;;;;;5148754;27;20454;-72
2023/09/20 04:54:07;;;;;;;56.70;2.50;;;;;;;;;;5153450;27;20868;-71
2023/09/20 04:56:36;;;;;;;57.00;2.70;;;;;;;;;;5152304;27;20998;-70
2023/09/20 04:59:04;;;;;;;56.70;2.40;;;;;;;;;;5153664;27;20533;-71
2023/09/20 05:01:31;;;;;;;56.60;2.30;;;;;;;;;;5153436;27;20921;-70
2023/09/20 05:03:58;;;;;;;56.77;2.80;;;;;;;;;;5153262;27;20811;-71
2023/09/20 05:06:27;;;;;;;56.63;2.30;;;;;;;;;;5153007;27;20446;-70
2023/09/20 05:08:54;;;;;;;58.70;3.90;;;;;;;;;;5153481;27;20902;-71
2023/09/20 05:11:22;;;;;;;56.53;2.40;;;;;;;;;;5153175;27;20452;-71
2023/09/20 05:13:49;;;;;;;57.10;2.60;;;;;;;;;;5152913;27;20472;-71
2023/09/20 05:16:16;;;;;;;56.63;2.60;;;;;;;;;;5152712;27;20475;-72
2023/09/20 05:18:43;;;;;;;56.60;2.80;;;;;;;;;;5153280;27;20440;-72
2023/09/20 05:21:10;;;;;;;57.20;3.03;;;;;;;;;;5153174;27;20440;-72
2023/09/20 05:23:40;;;;;;;57.70;2.53;;;;;;;;;;5153192;27;20443;-72
2023/09/20 05:26:08;;;;;;;57.30;2.60;;;;;;;;;;5152956;27;20466;-70
2023/09/20 05:28:36;;;;;;;56.80;2.57;;;;;;;;;;5152632;27;20471;-71
2023/09/20 05:31:05;;;;;;;56.53;2.60;;;;;;;;;;5152825;27;20473;-70
2023/09/20 05:33:32;;;;;;;56.77;2.50;;;;;;;;;;5152967;27;20452;-71
2023/09/20 05:35:59;;;;;;;56.37;2.13;;;;;;;;;;5152772;27;20485;-72
2023/09/20 05:38:26;;;;;;;56.60;2.40;;;;;;;;;;5152468;27;20459;-71
2023/09/20 05:40:55;;;;;;;56.60;2.60;;;;;;;;;;5152509;27;20963;-70
2023/09/20 05:43:22;;;;;;;56.67;2.57;;;;;;;;;;5152470;27;20940;-71
2023/09/20 05:45:49;;;;;;;56.57;2.20;;;;;;;;;;5152701;27;20462;-71
2023/09/20 05:48:16;;;;;;;56.50;2.70;;;;;;;;;;5152396;27;20463;-71
2023/09/20 05:50:43;;;;;;;56.60;2.40;;;;;;;;;;5152498;27;20516;-71
2023/09/20 05:53:11;;;;;;;57.30;2.77;;;;;;;;;;5153244;27;20446;-71
2023/09/20 05:55:38;;;;;;;56.47;2.13;;;;;;;;;;5152521;27;20444;-70
2023/09/20 05:58:07;;;;;;;57.13;3.13;;;;;;;;;;5152103;27;20468;-71
2023/09/20 06:00:35;;;;;;;56.43;2.50;;;;;;;;;;5152520;27;20436;-70
2023/09/20 06:03:04;;;;;;;56.50;2.37;;;;;;;;;;5152574;27;20474;-71
2023/09/20 06:05:33;;;;;;;56.77;2.80;;;;;;;;;;5152238;27;20493;-72
2023/09/20 06:08:01;;;;;;;56.70;2.60;;;;;;;;;;5155137;27;20460;-71
2023/09/20 06:10:28;;;;;;;56.37;2.40;;;;;;;;;;5156662;27;20496;-72
2023/09/20 06:12:55;;;;;;;56.50;2.50;;;;;;;;;;5156638;27;20439;-72
2023/09/20 06:15:23;;;;;;;56.40;2.43;;;;;;;;;;5156793;27;20521;-72
2023/09/20 06:17:51;;;;;;;56.50;2.60;;;;;;;;;;5156166;27;20494;-70
2023/09/20 06:20:20;;;;;;;56.50;2.57;;;;;;;;;;5156730;27;20443;-71
2023/09/20 06:22:48;;;;;;;57.63;3.20;;;;;;;;;;5156491;27;20966;-71
2023/09/20 06:25:16;;;;;;;56.43;2.83;;;;;;;;;;5156593;27;20450;-72
2023/09/20 06:27:43;;;;;;;56.57;3.07;;;;;;;;;;5156014;27;21013;-72
2023/09/20 06:30:13;;;;;;;56.20;2.13;;;;;;;;;;5156348;27;20443;-72
2023/09/20 06:32:44;;;;;;;57.07;3.00;;;;;;;;;;5156330;27;20463;-71
2023/09/20 06:35:12;;;;;;;57.23;3.40;;;;;;;;;;5156058;27;20440;-71
2023/09/20 06:37:39;;;;;;;56.70;2.50;;;;;;;;;;5155612;27;20578;-71
2023/09/20 06:40:15;;;;;;;56.47;2.40;;;;;;;;;;5156191;27;20466;-70
2023/09/20 06:42:42;;;;;;;56.40;2.10;;;;;;;;;;5156286;27;20470;-71
2023/09/20 06:45:10;;;;;;;57.10;2.83;;;;;;;;;;5155971;27;20439;-71
2023/09/20 06:47:37;;;;;;;56.37;2.20;;;;;;;;;;5155671;27;20466;-72
2023/09/20 06:50:05;;;;;;;56.53;2.67;;;;;;;;;;5155732;27;20454;-73
2023/09/20 06:52:33;;;;;;;56.47;2.30;;;;;;;;;;5156064;27;20477;-71
2023/09/20 06:55:00;;;;;;;56.23;2.30;;;;;;;;;;5155847;27;20470;-72
2023/09/20 06:57:29;;;;;;;56.33;2.23;;;;;;;;;;5155555;27;20486;-71
2023/09/20 06:59:57;;;;;;;56.53;2.50;;;;;;;;;;5155697;27;20477;-73
2023/09/20 07:02:25;;;;;;;56.47;2.57;;;;;;;;;;5155553;27;20466;-70
2023/09/20 07:04:55;;;;;;;56.30;2.10;;;;;;;;;;5155828;27;20443;-70
2023/09/20 07:07:25;;;;;;;56.50;2.20;;;;;;;;;;5155186;27;20471;-70
2023/09/20 07:09:52;;;;;;;56.70;2.97;;;;;;;;;;5155590;27;20906;-70
2023/09/20 07:12:19;;;;;;;56.40;2.70;;;;;;;;;;5155480;27;20946;-70
2023/09/20 07:14:47;;;;;;;56.30;2.40;;;;;;;;;;5155509;27;20444;-70
2023/09/20 07:17:15;;;;;;;56.30;2.40;;;;;;;;;;5154875;27;20574;-70
2023/09/20 07:19:47;;;;;;;56.50;2.50;;;;;;;;;;5154800;27;20501;-70
2023/09/20 07:22:14;;;;;;;57.23;2.87;;;;;;;;;;5155618;27;20535;-70
2023/09/20 07:24:45;;;;;;;56.17;2.13;;;;;;;;;;5155239;27;20448;-69
2023/09/20 07:27:12;;;;;;;56.40;2.10;;;;;;;;;;5154815;27;20463;-70
2023/09/20 07:29:41;;;;;;;56.67;2.20;;;;;;;;;;5154830;27;20447;-70
2023/09/20 07:32:09;;;;;;;56.37;2.43;;;;;;;;;;5155202;27;20571;-71
2023/09/20 07:34:37;;;;;;;56.27;2.20;;;;;;;;;;5155047;27;20827;-70
2023/09/20 07:37:07;;;;;;;56.33;2.43;;;;;;;;;;5154737;27;20844;-70
2023/09/20 07:39:34;;;;;;;56.70;2.33;;;;;;;;;;5154970;27;20448;-70
2023/09/20 07:42:03;;;;;;;56.30;2.30;;;;;;;;;;5154959;27;20816;-71
2023/09/20 07:44:31;;;;;;;56.60;2.20;;;;;;;;;;5154775;27;20548;-70
2023/09/20 07:46:58;;;;;;;56.80;2.30;;;;;;;;;;5154363;27;20464;-70
2023/09/20 07:49:25;;;;;;;56.70;2.10;;;;;;;;;;5154658;27;20440;-70
2023/09/20 07:51:54;;;;;;;56.30;2.10;;;;;;;;;;5155177;27;20448;-70
2023/09/20 07:54:21;;;;;;;56.07;2.00;;;;;;;;;;5154675;27;20479;-71
2023/09/20 07:56:52;;;;;;;57.27;2.73;;;;;;;;;;5154059;27;20492;-71
2023/09/20 07:59:23;;;;;;;57.77;2.67;;;;;;;;;;5154917;27;20508;-71
2023/09/20 08:01:52;;;;;;;57.00;2.67;;;;;;;;;;5154521;27;20443;-70
2023/09/20 08:04:19;;;;;;;56.27;2.20;;;;;;;;;;5154600;27;20459;-71
2023/09/20 08:06:47;;;;;;;56.57;2.23;;;;;;;;;;5154157;27;20462;-71
2023/09/20 08:09:15;;;;;;;56.37;2.10;;;;;;;;;;5154062;27;20448;-71
2023/09/20 08:11:42;;;;;;;57.57;2.00;;;;;;;;;;5147647;27;20443;-72
2023/09/20 08:14:09;;;;;;;56.87;2.27;;;;;;;;;;5133748;27;20817;-72
2023/09/20 08:16:38;;;;;;;56.17;2.10;;;;;;;;;;5133278;27;20468;-71
2023/09/20 08:19:06;;;;;;;56.43;2.43;;;;;;;;;;5133202;27;20539;-72
2023/09/20 08:21:34;;;;;;;56.70;2.70;;;;;;;;;;5133444;27;20936;-70
2023/09/20 08:59:53;;;;;;;56.17;2.10;;;;;;;;;;5132694;27;20494;-70
2023/09/20 09:02:20;;;;;;;56.10;2.10;;;;;;;;;;5132437;27;20997;-69
2023/09/20 09:04:52;;;;;;;56.13;2.07;;;;;;;;;;5132549;27;20449;-70
2023/09/20 09:07:19;;;;;;;56.07;1.80;;;;;;;;;;5132043;27;20471;-72
2023/09/20 09:09:46;;;;;;;56.07;2.10;;;;;;;;;;5132409;27;20447;-71
2023/09/20 09:12:13;;;;;;;57.10;3.50;;;;;;;;;;5132447;27;20452;-70
2023/09/20 09:14:42;;;;;;;56.37;2.10;;;;;;;;;;5132273;27;20456;-71
2023/09/20 09:17:10;;;;;;;56.07;1.93;;;;;;;;;;5132011;27;20487;-70
2023/09/20 09:19:38;;;;;;;56.40;2.30;;;;;;;;;;5132103;27;20476;-70
2023/09/20 09:22:07;;;;;;;56.07;2.10;;;;;;;;;;5150317;27;20452;-70
2023/09/20 09:24:43;;;;;;;56.30;2.30;;;;;;;;;;5153043;27;20451;-70
2023/09/20 09:27:10;;;;;;;56.73;2.00;;;;;;;;;;5152644;27;20514;-70
2023/09/20 09:29:37;;;;;;;56.40;2.10;;;;;;;;;;5152736;27;20454;-70
2023/09/20 09:32:05;;;;;;;55.67;2.00;;;;;;;;;;5152638;27;20940;-71
2023/09/20 09:34:32;;;;;;;55.87;2.00;;;;;;;;;;5152494;27;20443;-71
2023/09/20 09:36:59;;;;;;;56.50;2.33;;;;;;;;;;5152595;27;20847;-70
2023/09/20 09:39:29;;;;;;;56.47;1.90;;;;;;;;;;5152467;27;20958;-70
2023/09/20 09:41:57;;;;;;;56.30;2.50;;;;;;;;;;5152349;27;20459;-71
2023/09/20 09:44:25;;;;;;;55.93;2.13;;;;;;;;;;5123381;27;20493;-70
2023/09/20 09:46:52;;;;;;;55.93;1.93;;;;;;;;;;5131702;27;21007;-70
2023/09/20 09:49:21;;;;;;;55.87;2.30;;;;;;;;;;5131551;27;20464;-70
2023/09/20 09:51:50;;;;;;;56.10;1.93;;;;;;;;;;5132163;27;20433;-71
2023/09/20 09:54:19;;;;;;;56.17;2.10;;;;;;;;;;5131672;27;20999;-71
2023/09/20 09:56:48;;;;;;;55.87;1.80;;;;;;;;;;5131494;27;20531;-70
2023/09/20 09:59:16;;;;;;;56.10;1.80;;;;;;;;;;5131487;27;20447;-70
2023/09/20 10:01:45;;;;;;;56.20;1.80;;;;;;;;;;5132094;27;20946;-71
2023/09/20 10:04:12;;;;;;;56.00;2.00;;;;;;;;;;5131702;27;20548;-71
2023/09/20 10:06:44;;;;;;;56.20;1.70;;;;;;;;;;5131441;27;20488;-68
2023/09/20 10:09:13;;;;;;;55.80;1.70;;;;;;;;;;5131555;27;20809;-69
2023/09/20 10:11:41;;;;;;;56.07;2.00;;;;;;;;;;5131753;27;20441;-70
2023/09/20 10:14:10;;;;;;;55.93;1.87;;;;;;;;;;5131372;27;20866;-69
2023/09/20 10:16:42;;;;;;;55.90;1.80;;;;;;;;;;5131802;27;20491;-70
2023/09/20 10:19:10;;;;;;;55.47;1.80;;;;;;;;;;5131226;27;20480;-70
2023/09/20 10:21:40;;;;;;;55.37;1.70;;;;;;;;;;5131769;27;20452;-70
2023/09/20 10:24:09;;;;;;;56.47;2.17;;;;;;;;;;5131527;27;20447;-70
2023/09/20 10:26:36;;;;;;;55.90;2.13;;;;;;;;;;5131296;27;20485;-71
2023/09/20 10:29:18;;;;;;;55.60;1.67;;;;;;;;;;5132104;27;20433;-70
2023/09/20 10:31:49;;;;;;;55.30;1.60;;;;;;;;;;5152268;27;20448;-71
2023/09/20 10:34:19;;;;;;;55.47;1.60;;;;;;;;;;5152037;27;20448;-70
2023/09/20 10:36:51;;;;;;;56.10;1.87;;;;;;;;;;5151992;27;20956;-71
2023/09/20 10:39:22;;;;;;;55.80;1.80;;;;;;;;;;5151805;27;20479;-71
2023/09/20 10:41:49;;;;;;;55.60;1.90;;;;;;;;;;5152219;27;20450;-71
2023/09/20 10:44:28;;;;;;;55.10;1.60;;;;;;;;;;5151784;27;20973;-70
2023/09/20 10:46:58;;;;;;;56.20;2.20;;;;;;;;;;5151881;27;20619;-70
2023/09/20 10:49:41;;;;;;;55.70;1.73;;;;;;;;;;5151719;27;20501;-71
2023/09/20 10:52:09;;;;;;;55.53;2.10;;;;;;;;;;5152026;27;20448;-70
2023/09/20 10:54:39;;;;;;;55.00;1.63;;;;;;;;;;5154147;27;20439;-70
2023/09/20 10:57:09;;;;;;;55.10;1.70;;;;;;;;;;5155618;27;20456;-70
2023/09/20 10:59:37;;;;;;;55.20;1.93;;;;;;;;;;5155739;27;20451;-71
2023/09/20 11:02:08;;;;;;;54.87;1.77;;;;;;;;;;5155438;27;21026;-70
2023/09/20 11:04:36;;;;;;;54.97;1.50;;;;;;;;;;5155779;27;20467;-70
2023/09/20 11:07:03;;;;;;;55.10;1.70;;;;;;;;;;5155316;27;20470;-70
2023/09/20 11:09:33;;;;;;;54.90;1.63;;;;;;;;;;5155316;27;20479;-70
2023/09/20 11:12:04;;;;;;;55.13;1.77;;;;;;;;;;5155868;27;20450;-70
2023/09/20 11:14:35;;;;;;;55.30;2.00;;;;;;;;;;5155300;27;20514;-70
2023/09/20 11:17:05;;;;;;;54.90;1.60;;;;;;;;;;5155540;27;20470;-70
2023/09/20 11:19:33;;;;;;;55.00;1.83;;;;;;;;;;5155287;27;20517;-70
2023/09/20 11:22:01;;;;;;;55.00;1.80;;;;;;;;;;5155460;27;20448;-70
2023/09/20 11:24:28;;;;;;;54.67;1.50;;;;;;;;;;5155246;27;20450;-70
2023/09/20 11:26:56;;;;;;;54.90;1.80;;;;;;;;;;5154993;27;20865;-71
2023/09/20 11:29:24;;;;;;;54.77;1.60;;;;;;;;;;5155118;27;20575;-71
2023/09/20 11:31:51;;;;;;;54.70;1.63;;;;;;;;;;5155430;27;20446;-70
2023/09/20 11:34:19;;;;;;;55.07;2.00;;;;;;;;;;5155098;27;20444;-71
2023/09/20 11:36:48;;;;;;;55.13;1.60;;;;;;;;;;5154917;27;20468;-70
2023/09/20 11:39:17;;;;;;;55.13;1.90;;;;;;;;;;5154813;27;20436;-70
2023/09/20 11:41:45;;;;;;;55.60;1.83;;;;;;;;;;5154816;27;20899;-70
2023/09/20 11:44:12;;;;;;;55.70;2.37;;;;;;;;;;5154747;27;20450;-70
2023/09/20 11:46:39;;;;;;;55.37;1.90;;;;;;;;;;5154841;27;20533;-71
2023/09/20 11:49:08;;;;;;;55.37;1.90;;;;;;;;;;5154397;27;20583;-70
2023/09/20 11:51:36;;;;;;;56.03;2.00;;;;;;;;;;5154491;27;20504;-70
2023/09/20 11:54:06;;;;;;;55.20;1.90;;;;;;;;;;5154705;27;20456;-70
2023/09/20 11:56:35;;;;;;;55.07;1.80;;;;;;;;;;5125757;27;20864;-69
2023/09/20 11:59:03;;;;;;;54.77;1.57;;;;;;;;;;5133879;27;20440;-70
2023/09/20 12:01:30;;;;;;;55.30;2.20;;;;;;;;;;5134198;27;20510;-70
2023/09/20 12:03:58;;;;;;;54.97;1.70;;;;;;;;;;5133639;27;20444;-69
2023/09/20 12:06:25;;;;;;;54.80;1.53;;;;;;;;;;5133236;27;20440;-72
2023/09/20 12:08:53;;;;;;;55.00;1.70;;;;;;;;;;5133401;27;20549;-70
2023/09/20 12:11:22;;;;;;;54.57;1.60;;;;;;;;;;5133625;27;20472;-71
2023/09/20 12:13:49;;;;;;;54.90;1.47;;;;;;;;;;5133679;27;20456;-71
2023/09/20 12:16:18;;;;;;;55.00;1.40;;;;;;;;;;5133473;27;20820;-70
2023/09/20 12:18:46;;;;;;;54.97;1.60;;;;;;;;;;5133539;27;20471;-70
2023/09/20 12:21:13;;;;;;;55.00;1.63;;;;;;;;;;5133295;27;20831;-70
2023/09/20 12:23:40;;;;;;;55.10;1.40;;;;;;;;;;5133783;27;20447;-70
2023/09/20 12:26:07;;;;;;;55.10;1.60;;;;;;;;;;5133274;27;20457;-70
2023/09/20 12:28:36;;;;;;;55.30;1.60;;;;;;;;;;5132969;27;21079;-70
2023/09/20 12:31:03;;;;;;;55.23;1.50;;;;;;;;;;5133419;27;20474;-71
2023/09/20 12:33:31;;;;;;;55.00;1.80;;;;;;;;;;5133181;27;20485;-69
2023/09/20 12:35:59;;;;;;;54.67;1.60;;;;;;;;;;5133037;27;20444;-70
2023/09/20 12:38:29;;;;;;;54.70;1.47;;;;;;;;;;5132687;27;20493;-70
2023/09/20 12:40:56;;;;;;;54.93;1.53;;;;;;;;;;5133216;27;20455;-69
2023/09/20 12:43:23;;;;;;;55.17;1.93;;;;;;;;;;5133244;27;20821;-70
2023/09/20 12:45:53;;;;;;;54.80;2.00;;;;;;;;;;5132954;27;20437;-70
2023/09/20 12:48:20;;;;;;;54.50;1.40;;;;;;;;;;5132261;27;20484;-70
2023/09/20 12:50:48;;;;;;;54.80;1.80;;;;;;;;;;5132951;27;20488;-70
2023/09/20 12:53:15;;;;;;;54.90;2.00;;;;;;;;;;5132904;27;20441;-70
2023/09/20 12:55:42;;;;;;;54.97;1.63;;;;;;;;;;5132772;27;20441;-70
2023/09/20 12:58:13;;;;;;;54.40;1.40;;;;;;;;;;5132313;27;20518;-70
2023/09/20 13:00:40;;;;;;;54.37;1.57;;;;;;;;;;5132581;27;20448;-70
2023/09/20 13:03:09;;;;;;;54.30;1.40;;;;;;;;;;5132538;27;20501;-70
2023/09/20 13:05:36;;;;;;;54.60;1.50;;;;;;;;;;5124561;27;20445;-70
2023/09/20 13:08:04;;;;;;;54.53;1.50;;;;;;;;;;5132321;27;20468;-70
2023/09/20 13:10:33;;;;;;;54.47;1.60;;;;;;;;;;5132387;27;20828;-70
2023/09/20 13:13:02;;;;;;;54.60;1.70;;;;;;;;;;5132256;27;20451;-71
2023/09/20 13:15:30;;;;;;;54.67;1.67;;;;;;;;;;5132108;27;20847;-70
2023/09/20 13:17:57;;;;;;;55.07;1.70;;;;;;;;;;5131540;27;20521;-70
2023/09/20 13:20:27;;;;;;;55.20;1.80;;;;;;;;;;5132073;27;20451;-70
2023/09/20 13:22:56;;;;;;;55.57;1.70;;;;;;;;;;5132433;27;20727;-70
2023/09/20 13:25:26;;;;;;;54.90;1.60;;;;;;;;;;5132214;27;20456;-70
2023/09/20 13:27:54;;;;;;;54.87;1.50;;;;;;;;;;5131711;27;20496;-70
2023/09/20 13:30:21;;;;;;;54.70;1.50;;;;;;;;;;5131941;27;20484;-70
2023/09/20 13:32:48;;;;;;;55.00;1.50;;;;;;;;;;5132206;27;20916;-71
2023/09/20 13:35:16;;;;;;;54.50;1.37;;;;;;;;;;5132008;27;20445;-69
2023/09/20 13:37:45;;;;;;;55.17;1.70;;;;;;;;;;5131642;27;20521;-70
2023/09/20 13:40:14;;;;;;;54.70;1.60;;;;;;;;;;5131813;27;20452;-71
2023/09/20 13:42:42;;;;;;;54.67;1.50;;;;;;;;;;5131794;27;20544;-71
2023/09/20 13:45:10;;;;;;;54.97;1.70;;;;;;;;;;5131774;27;21012;-71
2023/09/20 13:47:39;;;;;;;55.80;1.83;;;;;;;;;;5131529;27;20468;-71
2023/09/20 13:50:08;;;;;;;54.57;1.60;;;;;;;;;;5131705;27;20849;-71
2023/09/20 13:52:35;;;;;;;55.13;1.83;;;;;;;;;;5131779;27;20879;-72
2023/09/20 13:55:05;;;;;;;55.00;2.00;;;;;;;;;;5131599;27;20820;-71
2023/09/20 13:57:33;;;;;;;54.83;1.50;;;;;;;;;;5131649;27;20456;-68
2023/09/20 14:00:03;;;;;;;55.20;1.40;;;;;;;;;;5131817;27;20448;-68
2023/09/20 14:02:31;;;;;;;55.00;1.50;;;;;;;;;;5131605;27;20798;-71
2023/09/20 14:04:58;;;;;;;55.40;1.50;;;;;;;;;;5131675;27;20451;-70
2023/09/20 14:07:25;;;;;;;55.40;1.60;;;;;;;;;;5131154;27;20471;-70
2023/09/20 14:09:52;;;;;;;54.87;1.50;;;;;;;;;;5131452;27;20495;-71
2023/09/20 14:12:21;;;;;;;55.00;1.43;;;;;;;;;;5131653;27;20445;-69
2023/09/20 14:14:50;;;;;;;54.67;1.53;;;;;;;;;;5131665;27;20449;-70
2023/09/20 14:17:17;;;;;;;55.00;1.60;;;;;;;;;;5131280;27;20468;-69
2023/09/20 14:19:44;;;;;;;55.07;1.37;;;;;;;;;;5131738;27;20449;-69
2023/09/20 14:22:12;;;;;;;54.97;1.33;;;;;;;;;;5131426;27;20551;-70
2023/09/20 14:24:39;;;;;;;54.77;1.60;;;;;;;;;;5131418;27;20482;-69
2023/09/20 14:27:06;;;;;;;55.37;1.60;;;;;;;;;;5131362;27;20460;-70
2023/09/20 14:29:35;;;;;;;55.40;1.60;;;;;;;;;;5135408;27;20484;-70
2023/09/20 14:32:02;;;;;;;55.57;1.60;;;;;;;;;;5135670;27;20452;-69
2023/09/20 14:34:30;;;;;;;55.47;1.67;;;;;;;;;;5135254;27;20487;-70
2023/09/20 14:36:57;;;;;;;55.63;1.70;;;;;;;;;;5135476;27;20471;-70
2023/09/20 14:39:25;;;;;;;55.50;1.63;;;;;;;;;;5135463;27;20437;-70
2023/09/20 14:41:52;;;;;;;55.27;1.73;;;;;;;;;;5135272;27;20925;-70
2023/09/20 14:44:20;;;;;;;55.30;1.47;;;;;;;;;;5135261;27;20920;-70
2023/09/20 14:46:48;;;;;;;58.07;1.60;;;;;;;;;;5135091;27;20471;-70
2023/09/20 14:49:16;;;;;;;55.60;1.60;;;;;;;;;;5134800;27;20480;-70
2023/09/20 14:51:43;;;;;;;55.40;1.50;;;;;;;;;;5135220;27;20459;-70
2023/09/20 14:54:10;;;;;;;55.97;1.90;;;;;;;;;;5135328;27;20448;-70
2023/09/20 14:56:37;;;;;;;55.80;1.90;;;;;;;;;;5134869;27;20460;-70
2023/09/20 14:59:05;;;;;;;56.10;1.90;;;;;;;;;;5134962;27;20476;-70
2023/09/20 15:01:33;;;;;;;56.20;2.10;;;;;;;;;;5134848;27;20479;-70
2023/09/20 15:04:01;;;;;;;55.50;1.70;;;;;;;;;;5134853;27;20445;-70
2023/09/20 15:06:28;;;;;;;55.47;1.70;;;;;;;;;;5134834;27;20453;-70
2023/09/20 15:08:55;;;;;;;55.50;1.60;;;;;;;;;;5134783;27;20485;-70
2023/09/20 15:11:22;;;;;;;55.67;1.73;;;;;;;;;;5134691;27;20634;-69
2023/09/20 15:13:53;;;;;;;55.80;1.70;;;;;;;;;;5134766;27;20882;-70
2023/09/20 15:16:20;;;;;;;55.57;1.53;;;;;;;;;;5134283;27;20533;-69